Time;durP1;ratioP1;P1;durP2;ratioP2;P2;SDS_P1;SDS_P2;PMS_P1;PMS_P2;Temp;Humidity;BMP_temperature;BMP_pressure;BME280_temperature;BME280_humidity;BME280_pressure;Samples;Min_cycle;Max_cycle;Signal;HPM_P1;HPM_P2
2020/12/02 00:01:16;;;;;;;22.13;11.63;;;;;;;19.05;48.06;101592.72;2320491;76;51538;-78
2020/12/02 00:04:19;;;;;;;16.80;10.55;;;;;;;19.03;47.83;101587.19;2320998;76;51612;-77
2020/12/02 00:07:21;;;;;;;21.10;10.88;;;;;;;19.03;48.03;101585.33;2320732;76;50773;-78
2020/12/02 00:10:23;;;;;;;19.20;11.28;;;;;;;19.00;47.79;101589.69;2320603;76;50443;-77
2020/12/02 00:13:28;;;;;;;20.92;11.40;;;;;;;18.97;47.84;101582.48;2319406;76;51625;-77
2020/12/02 00:16:31;;;;;;;17.40;11.33;;;;;;;18.97;47.92;101585.16;2319405;76;50441;-77
2020/12/02 00:19:33;;;;;;;18.50;11.25;;;;;;;18.94;47.83;101584.98;2318308;75;50869;-78
2020/12/02 00:22:36;;;;;;;19.25;10.58;;;;;;;18.91;48.04;101580.79;2318193;76;52519;-78
2020/12/02 00:25:39;;;;;;;18.75;11.50;;;;;;;18.92;47.89;101588.33;2318124;75;50065;-76
2020/12/02 00:28:41;;;;;;;20.48;11.22;;;;;;;18.88;47.96;101585.14;2317841;76;51492;-77
2020/12/02 00:31:43;;;;;;;18.50;10.75;;;;;;;18.89;47.95;101581.95;2317772;76;50681;-76
2020/12/02 00:34:45;;;;;;;16.02;10.58;;;;;;;18.87;47.99;101586.13;2317891;76;51663;-77
2020/12/02 00:37:48;;;;;;;16.77;10.00;;;;;;;18.86;47.88;101583.12;2317858;76;51505;-77
2020/12/02 00:40:51;;;;;;;17.12;11.20;;;;;;;18.85;47.68;101582.76;2317619;76;50627;-77
2020/12/02 00:43:53;;;;;;;16.20;9.85;;;;;;;18.82;47.60;101581.75;2317622;75;51386;-77
2020/12/02 00:46:55;;;;;;;17.85;10.95;;;;;;;18.82;47.72;101580.41;2317774;76;50328;-76
2020/12/02 00:49:57;;;;;;;17.52;10.63;;;;;;;18.80;47.79;101594.47;2318197;76;50267;-76
2020/12/02 00:53:03;;;;;;;16.57;11.08;;;;;;;18.82;47.76;101588.95;2318177;76;50746;-77
2020/12/02 00:56:06;;;;;;;17.57;10.30;;;;;;;18.80;47.77;101592.30;2317142;76;49472;-78
2020/12/02 00:59:20;;;;;;;15.25;10.10;;;;;;;18.77;47.77;101593.45;2318390;76;51577;-77
2020/12/02 01:02:37;;;;;;;15.53;10.43;;;;;;;18.78;47.74;101592.48;2317508;75;51771;-77
2020/12/02 01:05:39;;;;;;;15.35;10.05;;;;;;;18.75;47.63;101595.45;2318528;75;50777;-78
2020/12/02 01:08:44;;;;;;;16.75;10.23;;;;;;;18.73;47.81;101600.13;2318681;76;50510;-74
2020/12/02 01:11:46;;;;;;;15.20;9.75;;;;;;;18.71;47.61;101600.78;2318444;76;51521;-77
2020/12/02 01:14:49;;;;;;;15.58;9.80;;;;;;;18.70;47.79;101598.61;2318690;76;51549;-78
2020/12/02 01:18:15;;;;;;;15.23;10.40;;;;;;;18.68;47.61;101595.24;2318568;76;50377;-77
2020/12/02 01:21:22;;;;;;;19.55;10.50;;;;;;;18.68;47.68;101595.75;2170176;80;51535;-77
2020/12/02 01:24:33;;;;;;;13.55;9.93;;;;;;;18.66;47.66;101591.88;2171343;81;50265;-78
2020/12/02 01:27:55;;;;;;;14.87;9.88;;;;;;;18.66;47.61;101585.68;2171084;81;50795;-77
2020/12/02 01:30:58;;;;;;;15.30;9.90;;;;;;;18.65;47.53;101589.34;2170737;80;50001;-77
2020/12/02 01:34:00;;;;;;;13.50;9.85;;;;;;;18.66;47.52;101594.56;2170437;81;52628;-76
2020/12/02 01:37:08;;;;;;;18.87;11.00;;;;;;;18.66;47.43;101596.41;2171061;81;50481;-76
2020/12/02 01:40:16;;;;;;;14.80;10.00;;;;;;;18.63;47.52;101599.41;2170864;81;51526;-76
2020/12/02 01:43:18;;;;;;;17.70;10.43;;;;;;;18.61;47.47;101607.59;2170404;81;50297;-77
2020/12/02 01:46:29;;;;;;;13.65;9.23;;;;;;;18.60;47.59;101602.39;2170776;81;50390;-78
2020/12/02 01:49:51;;;;;;;15.25;9.83;;;;;;;18.61;47.68;101598.72;2170516;80;51501;-77
2020/12/02 01:52:55;;;;;;;15.60;9.10;;;;;;;18.60;47.43;101594.34;2275233;76;50437;-76
2020/12/02 01:56:02;;;;;;;14.85;9.50;;;;;;;18.59;47.40;101595.36;2318019;75;51408;-76
2020/12/02 01:59:20;;;;;;;14.65;9.60;;;;;;;18.57;47.38;101594.16;2318516;76;50738;-76
2020/12/02 02:02:54;;;;;;;15.75;10.20;;;;;;;18.56;47.66;101588.98;2317475;75;50282;-77
2020/12/02 02:06:11;;;;;;;16.02;10.20;;;;;;;18.55;47.59;101586.81;2317756;76;52445;-77
2020/12/02 02:09:14;;;;;;;14.75;9.40;;;;;;;18.55;47.46;101584.60;2317656;76;51505;-77
2020/12/02 02:12:39;;;;;;;15.25;9.28;;;;;;;18.53;47.44;101591.98;2317494;75;50717;-77
2020/12/02 02:15:49;;;;;;;16.15;10.18;;;;;;;18.52;47.41;101596.98;2317843;76;50275;-76
2020/12/02 02:18:51;;;;;;;12.65;9.25;;;;;;;18.50;47.34;101593.98;2317881;75;50755;-76
2020/12/02 02:21:55;;;;;;;14.53;9.68;;;;;;;18.48;47.50;101593.80;2318497;75;51524;-76
2020/12/02 02:24:57;;;;;;;16.05;10.38;;;;;;;18.49;47.39;101595.47;2318763;76;51322;-75
2020/12/02 02:27:59;;;;;;;14.53;9.63;;;;;;;18.46;47.37;101589.09;2318310;76;50443;-76
2020/12/02 02:31:02;;;;;;;15.55;9.40;;;;;;;18.46;47.11;101587.24;2318308;76;50147;-77
2020/12/02 02:34:04;;;;;;;17.07;9.55;;;;;;;18.47;47.50;101588.95;2318303;76;50793;-77
2020/12/02 02:37:07;;;;;;;13.90;9.58;;;;;;;18.46;47.53;101581.89;2318419;76;51530;-77
2020/12/02 02:40:10;;;;;;;15.88;10.05;;;;;;;18.45;47.41;101584.75;2318410;76;51593;-78
2020/12/02 02:43:13;;;;;;;15.00;9.40;;;;;;;18.44;47.14;101580.37;2318182;76;51524;-78
2020/12/02 02:46:15;;;;;;;13.72;9.30;;;;;;;18.43;47.28;101576.85;2318326;76;50385;-78
2020/12/02 02:49:17;;;;;;;13.58;9.63;;;;;;;18.42;47.40;101582.36;2318346;76;50478;-77
2020/12/02 02:52:19;;;;;;;15.30;9.63;;;;;;;18.41;47.20;101576.67;2318190;76;50681;-78
2020/12/02 02:55:23;;;;;;;12.63;9.33;;;;;;;18.41;47.31;101578.01;2318356;76;50069;-77
2020/12/02 02:58:26;;;;;;;12.20;9.25;;;;;;;18.41;47.23;101582.03;2318287;76;50890;-77
2020/12/02 03:01:28;;;;;;;14.15;9.80;;;;;;;18.39;47.24;101578.66;2317922;76;50430;-77
2020/12/02 03:04:30;;;;;;;12.90;9.83;;;;;;;18.38;47.10;101584.53;2317691;76;50812;-77
2020/12/02 03:07:32;;;;;;;13.13;9.50;;;;;;;18.37;47.26;101581.52;2317620;76;51498;-77
2020/12/02 03:10:37;;;;;;;13.10;9.78;;;;;;;18.36;47.12;101585.69;2317478;76;51571;-76
2020/12/02 03:13:44;;;;;;;12.65;9.93;;;;;;;18.37;47.12;101591.38;2317232;76;50766;-77
2020/12/02 03:16:49;;;;;;;13.13;9.75;;;;;;;18.35;47.20;101584.84;2317533;76;50822;-77
2020/12/02 03:19:52;;;;;;;;;;;;;;;18.35;47.26;101581.34;2319840;76;51636;-77
2020/12/02 03:22:55;;;;;;;13.65;9.50;;;;;;;18.33;47.31;101586.84;2317590;75;51531;-76
2020/12/02 03:25:57;;;;;;;15.30;9.38;;;;;;;18.34;47.07;101590.36;2317747;76;50737;-76
2020/12/02 03:28:59;;;;;;;13.20;9.95;;;;;;;18.32;47.04;101587.02;2317561;76;50445;-76
2020/12/02 03:32:01;;;;;;;14.93;9.88;;;;;;;18.32;47.17;101580.32;2317560;76;50709;-76
2020/12/02 03:35:04;;;;;;;12.68;9.38;;;;;;;18.32;47.10;101577.64;2318235;76;51610;-77
2020/12/02 03:38:06;;;;;;;12.82;8.88;;;;;;;18.32;47.16;101583.00;2317845;76;50453;-77
2020/12/02 03:41:09;;;;;;;12.73;9.48;;;;;;;18.30;46.99;101579.13;2317731;76;50521;-77
2020/12/02 03:44:11;;;;;;;13.38;9.48;;;;;;;18.28;47.13;101564.53;2317747;75;51514;-78
2020/12/02 03:47:14;;;;;;;15.68;9.68;;;;;;;18.27;46.85;101570.91;2317743;76;51521;-76
2020/12/02 03:50:16;;;;;;;13.30;9.38;;;;;;;18.27;47.23;101565.55;2317809;76;51602;-77
2020/12/02 03:53:18;;;;;;;12.20;9.40;;;;;;;18.25;46.90;101570.72;2317653;76;51554;-76
2020/12/02 03:56:21;;;;;;;14.53;9.33;;;;;;;18.26;47.06;101565.22;2317910;75;51436;-78
2020/12/02 03:59:23;;;;;;;11.88;8.93;;;;;;;18.25;46.96;101568.05;2318005;76;50721;-77
2020/12/02 04:02:26;;;;;;;14.05;9.58;;;;;;;18.22;46.95;101559.83;2317690;75;51497;-77
2020/12/02 04:05:28;;;;;;;13.28;9.53;;;;;;;18.22;46.94;101554.97;2317930;75;51541;-78
2020/12/02 04:08:30;;;;;;;13.38;9.60;;;;;;;18.23;47.14;101553.96;2317655;75;51459;-76
2020/12/02 04:11:32;;;;;;;13.72;9.20;;;;;;;18.21;47.10;101550.59;2318048;76;50428;-78
2020/12/02 04:14:34;;;;;;;14.03;9.55;;;;;;;18.21;46.98;101550.12;2317879;76;50378;-77
2020/12/02 04:17:36;;;;;;;15.50;9.35;;;;;;;18.20;46.91;101540.89;2317901;76;50725;-77
2020/12/02 04:20:39;;;;;;;13.10;9.58;;;;;;;18.19;46.74;101547.26;2318024;76;51544;-77
2020/12/02 04:23:41;;;;;;;13.28;8.50;;;;;;;18.19;46.87;101552.62;2317956;75;51626;-77
2020/12/02 04:26:45;;;;;;;14.50;9.58;;;;;;;18.19;46.85;101552.62;2318115;76;50684;-77
2020/12/02 04:29:47;;;;;;;12.60;8.90;;;;;;;18.18;46.83;101550.91;2318027;76;50658;-77
2020/12/02 04:32:49;;;;;;;14.00;10.05;;;;;;;18.17;46.86;101550.08;2317925;75;51551;-78
2020/12/02 04:35:52;;;;;;;13.95;9.73;;;;;;;18.16;47.03;101548.42;2317962;76;51451;-77
2020/12/02 04:38:54;;;;;;;13.05;9.45;;;;;;;18.15;46.92;101548.56;2318041;76;50324;-78
2020/12/02 04:41:59;;;;;;;15.03;9.65;;;;;;;18.16;46.96;101546.21;2317481;76;50349;-77
2020/12/02 04:45:01;;;;;;;14.10;9.75;;;;;;;18.14;46.77;101544.22;2318005;76;50819;-77
2020/12/02 04:48:07;;;;;;;11.78;9.05;;;;;;;18.12;46.73;101544.86;2317901;76;51520;-80
2020/12/02 04:51:18;;;;;;;15.38;9.78;;;;;;;18.12;46.79;101536.83;2318029;75;51668;-76
2020/12/02 04:54:20;;;;;;;16.20;9.45;;;;;;;18.12;46.86;101533.65;2316867;76;51566;-78
2020/12/02 04:57:22;;;;;;;14.78;9.78;;;;;;;18.12;47.02;101536.33;2317810;76;50783;-77
2020/12/02 05:00:32;;;;;;;13.78;9.70;;;;;;;18.10;46.48;101539.66;2318270;76;51565;-78
2020/12/02 05:03:34;;;;;;;13.43;9.83;;;;;;;18.10;46.86;101534.30;2318308;75;51553;-78
2020/12/02 05:06:39;;;;;;;13.10;9.53;;;;;;;18.10;46.67;101536.14;2317243;75;51627;-77
2020/12/02 05:10:02;;;;;;;17.25;9.30;;;;;;;18.09;46.70;101540.66;2306688;76;51613;-77
2020/12/02 05:13:07;;;;;;;12.60;9.15;;;;;;;18.08;46.62;101539.47;2306502;76;50822;-77
2020/12/02 05:16:11;;;;;;;11.80;9.23;;;;;;;18.07;46.74;101541.31;2306643;77;50802;-77
2020/12/02 05:19:19;;;;;;;14.38;9.88;;;;;;;18.08;46.71;101548.84;2306542;75;50793;-78
2020/12/02 05:22:21;;;;;;;14.45;9.48;;;;;;;18.09;46.69;101542.52;2306620;77;52247;-77
2020/12/02 05:25:32;;;;;;;12.20;9.75;;;;;;;18.13;46.62;101539.84;2306618;76;51527;-78
2020/12/02 05:28:36;;;;;;;12.85;9.33;;;;;;;18.17;46.54;101529.99;2305870;76;50485;-75
2020/12/02 05:31:38;;;;;;;13.98;9.10;;;;;;;18.19;46.39;101526.66;2305942;77;51622;-77
2020/12/02 05:34:40;;;;;;;12.55;9.63;;;;;;;18.23;46.46;101518.63;2306925;76;50803;-76
2020/12/02 05:37:45;;;;;;;16.25;10.08;;;;;;;18.27;46.49;101520.52;2308489;76;49860;-75
2020/12/02 05:40:48;;;;;;;15.70;9.77;;;;;;;18.28;46.38;101522.17;2307097;77;51520;-77
2020/12/02 05:44:14;;;;;;;15.53;9.93;;;;;;;18.30;46.30;101520.19;2307041;77;51711;-77
2020/12/02 05:47:18;;;;;;;14.55;9.70;;;;;;;18.33;46.46;101516.34;2306780;76;51536;-77
2020/12/02 05:50:23;;;;;;;12.43;9.53;;;;;;;18.37;46.17;101505.63;2306354;75;51557;-76
2020/12/02 05:53:28;;;;;;;13.18;8.78;;;;;;;18.52;45.77;101517.92;2306661;77;23388;-77
2020/12/02 05:56:30;;;;;;;;;;;;;;;18.65;45.64;101514.28;2309204;77;51576;-77
2020/12/02 05:59:32;;;;;;;11.08;8.18;;;;;;;18.69;45.75;101519.67;2306693;77;50696;-77
2020/12/02 06:02:37;;;;;;;9.78;7.90;;;;;;;18.77;45.68;101522.41;2306277;77;50481;-77
2020/12/02 06:05:38;;;;;;;9.68;7.28;;;;;;;18.78;45.61;101518.74;2306272;77;23038;-77
2020/12/02 06:08:48;;;;;;;11.65;8.43;;;;;;;18.82;45.58;101519.24;2306202;76;50727;-77
2020/12/02 06:11:50;;;;;;;12.28;8.45;;;;;;;18.87;45.58;101512.38;2306479;77;51617;-78
2020/12/02 06:14:52;;;;;;;13.55;9.35;;;;;;;18.91;45.46;101510.23;2257613;77;51567;-78
2020/12/02 06:18:13;;;;;;;12.85;8.35;;;;;;;18.96;45.50;101507.89;2306497;77;50423;-78
2020/12/02 06:21:33;;;;;;;11.45;8.28;;;;;;;19.00;45.61;101513.25;2306977;77;51586;-78
2020/12/02 06:24:39;;;;;;;15.95;9.03;;;;;;;19.08;45.54;101509.23;2306252;77;51505;-79
2020/12/02 06:27:41;;;;;;;12.98;8.25;;;;;;;19.12;45.57;101509.25;2306524;76;50834;-78
2020/12/02 06:30:46;;;;;;;12.35;8.80;;;;;;;19.18;45.57;101504.23;2307565;76;50364;-78
2020/12/02 06:33:48;;;;;;;11.00;8.00;;;;;;;19.18;45.63;101506.41;2285609;77;50768;-77
2020/12/02 06:37:08;;;;;;;17.75;9.33;;;;;;;19.22;45.96;101506.42;2308620;76;50713;-78
2020/12/02 06:40:13;;;;;;;15.00;7.65;;;;;;;19.29;46.68;101500.73;2307447;75;50731;-77
2020/12/02 06:43:16;;;;;;;13.05;8.10;;;;;;;19.38;46.65;101507.44;2307673;77;51559;-78
2020/12/02 06:46:19;;;;;;;11.78;8.20;;;;;;;19.44;46.68;101505.41;2307915;77;50721;-77
2020/12/02 06:49:27;;;;;;;13.68;7.97;;;;;;;19.43;46.85;101502.41;2283008;77;51537;-78
2020/12/02 06:52:36;;;;;;;12.95;8.40;;;;;;;19.51;46.77;101503.73;2306327;76;52384;-77
2020/12/02 06:55:38;;;;;;;15.63;8.13;;;;;;;19.58;46.64;101503.41;2307061;77;22320;-76
2020/12/02 06:58:40;;;;;;;14.35;8.23;;;;;;;19.66;46.42;101503.40;2306719;76;51520;-77
2020/12/02 07:01:43;;;;;;;16.15;7.33;;;;;;;19.68;46.38;101501.42;2306717;77;50414;-77
2020/12/02 07:04:45;;;;;;;19.25;8.90;;;;;;;19.71;46.35;101497.05;2306735;76;50390;-77
2020/12/02 07:07:47;;;;;;;12.80;8.10;;;;;;;19.78;46.16;101500.73;2310075;76;50342;-78
2020/12/02 07:11:01;;;;;;;14.58;8.15;;;;;;;19.78;46.19;101498.05;2301947;76;51507;-79
2020/12/02 07:14:18;;;;;;;12.20;7.75;;;;;;;19.72;46.39;101493.34;2319063;75;51543;-78
2020/12/02 07:17:22;;;;;;;15.68;8.88;;;;;;;19.82;46.21;101499.05;2315325;75;49181;-78
2020/12/02 07:20:25;;;;;;;12.93;8.10;;;;;;;19.92;45.93;101501.05;2295500;76;50685;-78
2020/12/02 07:23:27;;;;;;;16.80;7.87;;;;;;;19.92;45.96;101503.73;2268372;78;50547;-77
2020/12/02 07:26:29;;;;;;;14.13;8.08;;;;;;;19.88;46.06;101511.27;2268030;78;50720;-77
2020/12/02 07:29:32;;;;;;;16.05;8.68;;;;;;;19.94;45.86;101507.92;2279877;78;50437;-78
2020/12/02 07:32:34;;;;;;;15.68;8.25;;;;;;;19.97;45.77;101508.91;2279519;76;50461;-78
2020/12/02 07:35:36;;;;;;;16.55;8.35;;;;;;;19.98;45.70;101507.06;2288432;76;50061;-78
2020/12/02 07:38:39;;;;;;;13.68;7.97;;;;;;;20.03;45.58;101507.89;2288721;76;50702;-78
2020/12/02 07:41:54;;;;;;;12.35;8.28;;;;;;;20.02;45.54;101501.69;2279972;78;51683;-77
2020/12/02 07:45:08;;;;;;;16.00;9.03;;;;;;;20.06;45.41;101492.26;2279759;78;51496;-78
2020/12/02 07:48:14;;;;;;;14.18;7.78;;;;;;;20.04;45.44;101502.36;2280002;77;50319;-79
2020/12/02 07:51:22;;;;;;;15.38;8.13;;;;;;;20.09;45.32;101495.97;2280720;77;50681;-77
2020/12/02 07:54:26;;;;;;;15.20;8.13;;;;;;;20.09;45.28;101500.00;2279748;77;50779;-77
2020/12/02 07:57:28;;;;;;;12.65;7.97;;;;;;;20.05;45.34;101491.94;2284311;76;50768;-76
2020/12/02 08:00:41;;;;;;;14.83;7.97;;;;;;;20.07;45.32;101489.92;2317337;76;51426;-76
2020/12/02 08:03:43;;;;;;;16.12;7.92;;;;;;;20.10;45.23;101499.48;2279848;78;50422;-76
2020/12/02 08:06:51;;;;;;;14.90;8.58;;;;;;;20.16;45.11;101497.44;2286516;75;50400;-77
2020/12/02 08:09:59;;;;;;;13.43;8.45;;;;;;;20.13;45.24;101503.17;2316013;76;51267;-77
2020/12/02 08:12:58;;;;;;;14.30;8.70;;;;;;;20.18;45.20;101507.00;2293471;75;22840;-76
2020/12/02 08:16:01;;;;;;;13.50;8.10;;;;;;;20.11;45.37;101496.61;2289027;76;50853;-76
2020/12/02 08:19:04;;;;;;;18.32;8.75;;;;;;;20.20;45.16;101497.44;2278787;78;51608;-77
2020/12/02 08:22:09;;;;;;;14.45;8.05;;;;;;;20.16;45.28;101494.75;2292208;76;51523;-77
2020/12/02 08:25:22;;;;;;;12.85;8.30;;;;;;;20.15;45.23;101492.58;2284169;76;50396;-77
2020/12/02 08:28:27;;;;;;;13.00;8.33;;;;;;;20.21;45.11;101493.73;2317428;76;51655;-76
2020/12/02 08:31:30;;;;;;;13.72;8.38;;;;;;;20.22;45.05;101490.05;2296859;76;51618;-76
2020/12/02 08:34:34;;;;;;;11.85;7.85;;;;;;;20.25;44.97;101484.84;2279116;78;51518;-77
2020/12/02 08:37:42;;;;;;;13.93;8.63;;;;;;;20.20;45.01;101476.78;2296276;76;50844;-77
2020/12/02 08:40:44;;;;;;;12.90;8.40;;;;;;;20.25;44.94;101474.92;2315937;76;22278;-77
2020/12/02 08:43:50;;;;;;;13.00;8.08;;;;;;;20.25;44.93;101474.92;2317462;75;50702;-77
2020/12/02 08:47:02;;;;;;;12.28;8.48;;;;;;;20.27;44.85;101469.35;2293538;76;23902;-77
2020/12/02 08:50:05;;;;;;;12.73;8.55;;;;;;;20.30;44.75;101465.00;2262526;75;50793;-77
2020/12/02 08:53:07;;;;;;;15.15;8.83;;;;;;;20.29;44.74;101464.13;2292513;76;50445;-76
2020/12/02 08:56:26;;;;;;;13.38;8.40;;;;;;;20.27;44.80;101470.22;2295705;75;50360;-76
2020/12/02 08:59:28;;;;;;;13.45;8.40;;;;;;;20.32;44.66;101467.84;2315697;76;51506;-76
2020/12/02 09:02:31;;;;;;;12.40;8.63;;;;;;;20.36;44.63;101460.25;2304083;76;52318;-76
2020/12/02 09:05:33;;;;;;;15.32;9.08;;;;;;;20.32;44.67;101461.13;2304476;76;50372;-76
2020/12/02 09:08:35;;;;;;;14.98;8.63;;;;;;;20.27;44.77;101460.81;2302286;76;50748;-76
2020/12/02 09:11:38;;;;;;;14.15;8.98;;;;;;;20.27;44.78;101460.81;2299228;76;50123;-77
2020/12/02 09:14:40;;;;;;;15.65;8.65;;;;;;;20.37;44.49;101454.71;2286089;76;51696;-77
2020/12/02 09:17:42;;;;;;;11.88;8.30;;;;;;;20.38;44.49;101466.30;2305701;76;51558;-76
2020/12/02 09:20:44;;;;;;;13.95;9.15;;;;;;;20.45;44.31;101453.33;2299933;76;50239;-77
2020/12/02 09:23:46;;;;;;;15.28;8.73;;;;;;;20.41;44.39;101453.84;2304301;76;50464;-76
2020/12/02 09:26:49;;;;;;;13.28;8.55;;;;;;;20.43;44.32;101450.48;2305761;76;50736;-77
2020/12/02 09:29:51;;;;;;;11.12;8.28;;;;;;;20.41;44.42;101443.09;2280773;75;51654;-77
2020/12/02 09:32:53;;;;;;;11.60;8.58;;;;;;;20.46;44.33;101450.13;2293322;75;50767;-77
2020/12/02 09:35:56;;;;;;;14.58;8.83;;;;;;;20.41;44.38;101442.58;2295423;76;51591;-76
2020/12/02 09:38:58;;;;;;;13.03;9.13;;;;;;;20.49;44.22;101438.18;2285367;76;51555;-76
2020/12/02 09:42:35;;;;;;;16.45;9.38;;;;;;;20.49;44.33;101444.39;2305825;76;51550;-76
2020/12/02 09:45:55;;;;;;;13.20;9.50;;;;;;;20.45;44.43;101432.33;2295366;76;50794;-77
2020/12/02 09:48:57;;;;;;;16.97;9.65;;;;;;;20.51;44.33;101428.09;2307763;75;51470;-76
2020/12/02 09:52:08;;;;;;;15.18;9.90;;;;;;;20.49;44.44;101425.57;2313693;76;50391;-77
2020/12/02 09:55:22;;;;;;;12.75;9.23;;;;;;;20.48;44.49;101429.80;2298445;76;50467;-77
2020/12/02 09:58:25;;;;;;;15.43;9.75;;;;;;;20.48;44.54;101426.59;2290918;76;50319;-77
2020/12/02 10:01:30;;;;;;;15.10;9.40;;;;;;;20.45;44.64;101422.92;2301065;76;52411;-76
2020/12/02 10:04:57;;;;;;;15.48;9.40;;;;;;;20.53;44.49;101418.84;2284622;76;51547;-77
2020/12/02 10:08:11;;;;;;;16.60;9.83;;;;;;;20.56;44.46;101419.85;2300343;75;51744;-77
2020/12/02 10:11:44;;;;;;;15.60;9.33;;;;;;;20.53;44.53;101413.46;2304307;76;51519;-76
2020/12/02 10:15:01;;;;;;;15.80;9.65;;;;;;;20.53;44.56;101413.46;2297012;76;50457;-76
2020/12/02 10:18:25;;;;;;;14.33;9.83;;;;;;;20.60;44.42;101403.70;2294412;75;51590;-77
2020/12/02 10:21:36;;;;;;;15.88;9.75;;;;;;;20.60;44.44;101400.16;2288186;75;50284;-75
2020/12/02 10:24:58;;;;;;;15.43;9.50;;;;;;;20.56;44.53;101388.94;2296848;76;50500;-77
2020/12/02 10:28:21;;;;;;;15.55;10.45;;;;;;;20.59;44.53;101390.43;2294890;76;51488;-76
2020/12/02 10:31:35;;;;;;;16.02;9.50;;;;;;;20.54;44.65;101388.75;2235744;76;50243;-77
2020/12/02 10:34:38;;;;;;;15.18;10.25;;;;;;;20.61;44.50;101374.45;2288656;76;51526;-77
2020/12/02 10:37:42;;;;;;;15.05;10.08;;;;;;;20.62;44.52;101373.94;2299351;76;50400;-77
2020/12/02 10:40:47;;;;;;;15.40;9.55;;;;;;;20.68;44.38;101375.06;2298258;76;51551;-77
2020/12/02 10:43:51;;;;;;;;;;;;;;;20.66;44.45;101369.88;2296407;76;50330;-77
2020/12/02 10:47:11;;;;;;;15.38;9.63;;;;;;;20.69;44.35;101361.45;2296997;76;50488;-77
2020/12/02 10:50:14;;;;;;;15.00;9.83;;;;;;;20.64;44.47;101351.23;2296905;76;51657;-77
2020/12/02 10:53:18;;;;;;;16.15;10.32;;;;;;;20.66;44.46;101345.68;2300372;76;51671;-77
2020/12/02 10:56:20;;;;;;;14.45;9.83;;;;;;;20.71;44.34;101341.11;2293387;76;51618;-77
2020/12/02 10:59:23;;;;;;;14.18;9.48;;;;;;;20.62;44.55;101329.05;2294739;76;51602;-77
2020/12/02 11:02:28;;;;;;;15.35;10.23;;;;;;;20.69;44.42;101325.66;2313004;75;50179;-77
2020/12/02 11:05:30;;;;;;;21.15;10.18;;;;;;;20.76;44.28;101323.92;2317840;76;50460;-76
2020/12/02 11:08:41;;;;;;;14.07;9.70;;;;;;;20.75;44.32;101315.52;2316651;76;50711;-76
2020/12/02 11:11:47;;;;;;;14.65;9.60;;;;;;;20.70;44.43;101312.53;2315112;76;51726;-75
2020/12/02 11:15:02;;;;;;;;;;;;;;;20.73;44.36;101309.47;2281747;77;50802;-77
2020/12/02 11:18:29;;;;;;;14.20;9.35;;;;;;;20.72;44.39;101307.81;2303173;76;50347;-76
2020/12/02 11:21:41;;;;;;;19.52;10.53;;;;;;;20.73;44.35;101293.34;2317302;76;50945;-77
2020/12/02 11:24:53;;;;;;;14.15;9.58;;;;;;;20.78;44.27;101282.87;2318829;75;22598;-75
2020/12/02 11:27:55;;;;;;;16.45;10.08;;;;;;;20.73;44.40;101278.55;2317878;76;50782;-76
2020/12/02 11:31:03;;;;;;;14.60;9.73;;;;;;;20.79;44.27;101275.15;2316579;75;51557;-76
2020/12/02 11:34:23;;;;;;;15.78;10.48;;;;;;;20.87;44.13;101269.69;2282827;76;51544;-77
2020/12/02 11:37:37;;;;;;;13.80;9.68;;;;;;;20.78;44.35;101262.70;2301943;76;51528;-77
2020/12/02 11:40:51;;;;;;;13.38;9.35;;;;;;;20.82;44.27;101272.09;2318901;76;51623;-77
2020/12/02 11:43:57;;;;;;;14.43;10.40;;;;;;;20.82;44.28;101264.02;2276073;77;51098;-78
2020/12/02 11:47:03;;;;;;;;;;;;;;;20.82;44.19;101259.98;2297051;76;51514;-78
2020/12/02 11:50:08;;;;;;;14.33;10.18;;;;;;;20.81;44.29;101265.05;2319730;76;50363;-77
2020/12/02 11:53:48;;;;;;;15.08;10.15;;;;;;;20.81;44.24;101259.16;2288093;76;50638;-77
2020/12/02 11:56:52;;;;;;;13.98;9.93;;;;;;;20.78;44.24;101256.84;2280395;77;52186;-78
2020/12/02 11:59:56;;;;;;;15.35;9.85;;;;;;;20.74;44.56;101254.17;2297550;75;50530;-78
2020/12/02 12:03:16;;;;;;;15.25;10.20;;;;;;;20.78;45.41;101246.56;2302367;75;51322;-77
2020/12/02 12:06:21;;;;;;;14.87;10.43;;;;;;;20.86;45.78;101257.27;2277990;76;52448;-78
2020/12/02 12:09:29;;;;;;;14.78;10.38;;;;;;;20.76;46.24;101245.94;2279662;77;51593;-78
2020/12/02 12:12:40;;;;;;;14.33;9.95;;;;;;;20.72;46.49;101237.89;2279247;76;53948;-77
2020/12/02 12:15:47;;;;;;;15.98;11.38;;;;;;;20.72;46.64;101239.23;2279857;77;50326;-78
2020/12/02 12:19:13;;;;;;;15.18;10.28;;;;;;;20.71;46.78;101233.55;2311929;76;51528;-78
2020/12/02 12:22:21;;;;;;;15.75;10.53;;;;;;;20.70;46.83;101231.86;2317869;75;50398;-79
2020/12/02 12:25:26;;;;;;;15.23;10.15;;;;;;;20.76;46.75;101217.70;2298323;76;50790;-79
2020/12/02 12:28:29;;;;;;;37.73;27.10;;;;;;;20.72;46.71;101211.00;2223277;78;50477;-75
2020/12/02 12:31:35;;;;;;;47.40;31.30;;;;;;;20.38;39.11;101212.30;2301889;76;50422;-75
2020/12/02 12:34:38;;;;;;;;;;;;;;;19.91;38.17;101211.95;2318990;76;50727;-74
2020/12/02 12:37:49;;;;;;;32.42;22.40;;;;;;;19.94;38.78;101207.59;2297642;76;50437;-74
2020/12/02 12:40:55;;;;;;;31.82;20.97;;;;;;;20.05;39.33;101198.28;2305051;76;50270;-76
2020/12/02 12:44:15;;;;;;;30.25;20.97;;;;;;;20.10;39.55;101196.72;2224246;79;50451;-76
2020/12/02 12:47:33;;;;;;;28.90;18.67;;;;;;;20.14;39.78;101194.02;2317508;76;50760;-75
2020/12/02 12:50:35;;;;;;;26.93;18.60;;;;;;;20.23;39.74;101190.23;2311993;76;22384;-75
2020/12/02 12:53:37;;;;;;;29.02;17.60;;;;;;;20.23;39.90;101189.40;2278748;76;51563;-76
2020/12/02 12:56:39;;;;;;;30.00;18.55;;;;;;;20.29;39.97;101188.66;2316908;76;51510;-75
2020/12/02 12:59:42;;;;;;;24.47;18.00;;;;;;;20.33;40.07;101183.78;2312911;76;51659;-76
2020/12/02 13:02:44;;;;;;;26.80;17.48;;;;;;;20.32;40.26;101179.41;2278801;78;50759;-76
2020/12/02 13:05:48;;;;;;;32.03;18.73;;;;;;;20.33;40.34;101171.17;2300986;76;51526;-75
2020/12/02 13:09:21;;;;;;;25.48;16.57;;;;;;;20.43;40.28;101160.17;2268435;78;50646;-75
2020/12/02 13:12:32;;;;;;;25.30;17.07;;;;;;;20.43;40.48;101157.48;2279785;78;50445;-76
2020/12/02 13:15:55;;;;;;;26.90;17.35;;;;;;;20.47;40.44;101154.73;2281122;76;50306;-76
2020/12/02 13:19:16;;;;;;;23.52;16.02;;;;;;;20.51;40.48;101152.53;2280666;76;52029;-75
2020/12/02 13:22:33;;;;;;;24.87;16.80;;;;;;;20.53;40.60;101147.81;2318183;75;51482;-75
2020/12/02 13:25:38;;;;;;;25.75;16.17;;;;;;;20.48;40.83;101142.16;2272850;76;51600;-75
2020/12/02 13:29:00;;;;;;;24.75;15.65;;;;;;;20.52;40.87;101148.30;2294429;76;51516;-76
2020/12/02 13:32:11;;;;;;;27.90;16.23;;;;;;;20.54;40.93;101140.92;2279116;76;51603;-75
2020/12/02 13:35:14;;;;;;;22.85;16.00;;;;;;;20.58;40.97;101143.59;2283032;75;50462;-75
2020/12/02 13:38:16;;;;;;;28.32;16.23;;;;;;;20.54;41.13;101127.97;2310851;76;50735;-76
2020/12/02 13:41:22;;;;;;;23.98;15.58;;;;;;;20.57;41.35;101129.80;2317409;76;50278;-76
2020/12/02 13:44:30;;;;;;;22.65;14.85;;;;;;;20.56;41.43;101120.59;2285315;75;49789;-76
2020/12/02 13:47:32;;;;;;;22.45;14.30;;;;;;;20.60;41.45;101113.80;2302067;76;50445;-76
2020/12/02 13:50:34;;;;;;;24.90;15.60;;;;;;;20.63;41.42;101118.32;2309509;76;50324;-75
2020/12/02 13:53:38;;;;;;;23.57;14.33;;;;;;;20.60;41.56;101113.32;2281210;76;50763;-77
2020/12/02 13:56:43;;;;;;;24.23;14.78;;;;;;;20.72;41.37;101115.53;2279726;76;50810;-76
2020/12/02 13:59:53;;;;;;;;;;;;;;;20.69;41.51;101108.67;2328929;76;51496;-75
2020/12/02 14:03:22;;;;;;;21.73;13.78;;;;;;;20.76;41.56;101108.78;2328852;74;50537;-76
2020/12/02 14:06:44;;;;;;;22.93;13.50;;;;;;;20.71;41.69;101106.64;2329112;76;51658;-75
2020/12/02 14:09:55;;;;;;;23.00;13.70;;;;;;;20.76;41.67;101108.78;2317885;76;52034;-75
2020/12/02 14:12:57;;;;;;;24.10;13.38;;;;;;;20.77;41.65;101105.05;2317944;76;51606;-75
2020/12/02 14:16:01;;;;;;;22.32;14.20;;;;;;;20.76;41.69;101106.09;2318311;76;51414;-75
2020/12/02 14:19:03;;;;;;;23.87;13.40;;;;;;;20.71;41.76;101103.12;2318141;76;51536;-75